Time;durP1;ratioP1;P1;durP2;ratioP2;P2;SDS_P1;SDS_P2;PMS_P1;PMS_P2;Temp;Humidity;BMP_temperature;BMP_pressure;BME280_temperature;BME280_humidity;BME280_pressure;Samples;Min_cycle;Max_cycle;Signal;HPM_P1;HPM_P2
2023/09/17 00:02:07;;;;;;;0.15;0.15;;;;;;;17.83;60.15;100047.97;5271050;27;20066;-95
2023/09/17 00:04:33;;;;;;;0.40;0.40;;;;;;;17.78;60.16;100046.47;5272081;27;20043;-95
2023/09/17 00:07:04;;;;;;;1.12;1.12;;;;;;;17.72;60.15;100049.41;5289157;27;20068;-94
2023/09/17 00:09:32;;;;;;;0.20;0.20;;;;;;;17.85;60.15;100043.47;5292628;27;20057;-94
2023/09/17 00:11:57;;;;;;;0.00;0.00;;;;;;;17.71;60.15;100038.97;5281680;27;20064;-92
2023/09/17 00:14:26;;;;;;;0.30;0.30;;;;;;;17.62;60.15;100035.06;5274501;27;20025;-94
2023/09/17 00:16:54;;;;;;;0.15;0.15;;;;;;;17.67;60.14;100030.41;5270648;27;20039;-93
2023/09/17 00:19:23;;;;;;;0.00;0.00;;;;;;;17.55;60.15;100028.47;5287628;27;20024;-95
2023/09/17 00:21:49;;;;;;;1.08;0.60;;;;;;;17.59;60.14;100023.87;5267906;27;20393;-94
2023/09/17 00:24:14;;;;;;;0.32;0.32;;;;;;;17.59;60.14;100023.87;5268744;27;20057;-94
2023/09/17 00:26:43;;;;;;;0.20;0.20;;;;;;;17.63;60.14;100018.34;5268121;27;20088;-94
2023/09/17 00:29:09;;;;;;;0.30;0.30;;;;;;;17.58;60.14;100020.37;5268417;27;20121;-93
2023/09/17 00:31:34;;;;;;;0.73;0.15;;;;;;;17.51;60.13;100026.94;5268631;27;20053;-93
2023/09/17 00:34:01;;;;;;;2.47;1.25;;;;;;;17.36;60.13;100026.00;5264858;27;20069;-92
2023/09/17 00:36:27;;;;;;;0.00;0.00;;;;;;;17.39;60.14;100023.19;5265086;27;20041;-93
2023/09/17 00:38:55;;;;;;;0.62;0.60;;;;;;;17.37;60.13;100021.59;5264781;27;20086;-93
2023/09/17 00:41:26;;;;;;;0.30;0.30;;;;;;;17.24;60.12;100024.03;5265076;27;20069;-93
2023/09/17 00:43:54;;;;;;;0.03;0.03;;;;;;;17.27;60.12;100023.87;5264826;27;20040;-93
2023/09/17 00:46:23;;;;;;;0.20;0.15;;;;;;;17.29;60.12;100027.28;5264886;27;20092;-92
2023/09/17 00:48:49;;;;;;;0.85;0.85;;;;;;;17.23;60.12;100017.06;5264712;27;20068;-93
2023/09/17 00:51:14;;;;;;;0.15;0.15;;;;;;;17.25;60.12;100009.09;5264685;27;20167;-93
2023/09/17 00:53:40;;;;;;;0.03;0.03;;;;;;;17.22;60.12;100009.25;5264388;27;20454;-94
2023/09/17 00:56:06;;;;;;;0.65;0.57;;;;;;;17.33;60.13;100013.00;5264733;27;20107;-93
2023/09/17 00:58:33;;;;;;;1.00;0.93;;;;;;;17.28;60.12;100011.59;5246922;27;20067;-94
2023/09/17 01:00:58;;;;;;;0.57;0.57;;;;;;;17.41;60.13;100015.22;5265131;27;20091;-94
2023/09/17 01:03:26;;;;;;;0.45;0.45;;;;;;;17.34;60.13;100011.22;5265236;27;20069;-94
2023/09/17 01:05:51;;;;;;;0.80;0.40;;;;;;;17.30;60.12;100010.56;5265229;27;20033;-93
2023/09/17 01:08:16;;;;;;;0.20;0.20;;;;;;;17.23;60.12;100010.97;5266213;27;20071;-93
2023/09/17 01:10:47;;;;;;;0.20;0.20;;;;;;;17.06;60.11;100017.16;5264975;27;20095;-93
2023/09/17 01:13:13;;;;;;;0.30;0.30;;;;;;;17.15;60.11;100014.03;5265841;27;20373;-94
2023/09/17 01:15:39;;;;;;;0.13;0.13;;;;;;;17.18;60.12;100016.47;5264560;27;20151;-94
2023/09/17 01:18:09;;;;;;;0.20;0.20;;;;;;;17.10;60.12;100014.28;5265089;27;20096;-95
2023/09/17 01:20:43;;;;;;;0.03;0.03;;;;;;;17.01;60.11;100012.12;5282418;27;20056;-93
2023/09/17 01:23:14;;;;;;;0.00;0.00;;;;;;;17.07;60.11;100011.81;5266602;27;20076;-94
2023/09/17 01:25:54;;;;;;;0.45;0.40;;;;;;;17.02;60.11;100013.81;5267775;27;20066;-93
2023/09/17 01:28:21;;;;;;;1.45;0.75;;;;;;;17.06;60.11;100022.44;5267837;27;20124;-94
2023/09/17 01:30:47;;;;;;;0.10;0.10;;;;;;;17.06;60.11;100014.53;5268902;27;20025;-94
2023/09/17 01:33:12;;;;;;;0.00;0.00;;;;;;;17.03;60.11;100015.53;5281830;27;20075;-94
2023/09/17 01:36:02;;;;;;;0.93;0.68;;;;;;;17.03;60.11;100014.69;5277816;27;20080;-93
2023/09/17 01:38:32;;;;;;;0.75;0.55;;;;;;;16.96;60.11;100016.81;5271448;27;20777;-96
2023/09/17 01:41:02;;;;;;;1.45;0.65;;;;;;;17.11;60.12;100004.59;5268361;27;20709;-94
2023/09/17 01:43:27;;;;;;;0.30;0.30;;;;;;;17.07;60.11;100000.44;5268216;27;20080;-95
2023/09/17 01:45:53;;;;;;;0.65;0.25;;;;;;;17.06;60.11;100004.03;5267956;27;20072;-95
2023/09/17 01:48:18;;;;;;;0.47;0.47;;;;;;;16.92;60.10;100003.91;5267839;27;20363;-94
2023/09/17 01:50:45;;;;;;;0.15;0.15;;;;;;;16.83;60.10;100005.25;5267845;27;20076;-93
2023/09/17 01:53:12;;;;;;;0.10;0.10;;;;;;;16.75;60.09;100005.66;5267821;27;20081;-95
2023/09/17 01:55:41;;;;;;;0.00;0.00;;;;;;;16.84;60.10;100007.81;5286155;27;20120;-94
2023/09/17 01:58:10;;;;;;;0.10;0.10;;;;;;;16.95;60.11;100003.72;5268103;27;20061;-94
2023/09/17 02:00:35;;;;;;;4.85;1.85;;;;;;;16.86;60.10;100008.56;5268723;27;20405;-95
2023/09/17 02:03:02;;;;;;;0.17;0.10;;;;;;;16.80;60.10;100008.06;5268339;27;20065;-94
2023/09/17 02:05:28;;;;;;;0.37;0.37;;;;;;;16.99;60.10;100013.16;5268183;27;20068;-94
2023/09/17 02:07:56;;;;;;;0.52;0.43;;;;;;;16.98;60.11;100006.19;5267676;27;20060;-95
2023/09/17 02:10:25;;;;;;;0.47;0.47;;;;;;;16.80;60.10;100008.91;5268265;27;20147;-95
2023/09/17 02:12:53;;;;;;;0.70;0.52;;;;;;;16.82;60.09;100007.03;5267990;27;20110;-94
2023/09/17 02:15:19;;;;;;;1.05;0.50;;;;;;;16.91;60.10;100002.22;5267485;27;20066;-95
2023/09/17 02:17:45;;;;;;;0.35;0.35;;;;;;;16.99;60.11;100006.09;5286018;27;20044;-94
2023/09/17 02:20:13;;;;;;;0.85;0.82;;;;;;;16.85;60.11;99991.09;5267642;27;20063;-94
2023/09/17 02:22:42;;;;;;;0.30;0.30;;;;;;;16.95;60.11;99990.59;5267795;27;20073;-94
2023/09/17 02:25:10;;;;;;;0.10;0.10;;;;;;;16.88;60.10;99996.19;5286544;27;20072;-94
2023/09/17 02:27:38;;;;;;;1.05;0.95;;;;;;;16.82;60.10;99996.53;5268240;27;20092;-95
2023/09/17 02:30:08;;;;;;;0.55;0.45;;;;;;;16.77;60.09;99995.03;5269158;27;20016;-94
2023/09/17 02:32:34;;;;;;;0.37;0.30;;;;;;;16.67;60.09;99992.06;5269947;27;20080;-94
2023/09/17 02:35:02;;;;;;;0.85;0.65;;;;;;;16.74;60.09;99987.31;5247754;27;20341;-95
2023/09/17 02:37:30;;;;;;;0.00;0.00;;;;;;;16.73;60.09;99994.37;5274715;27;20053;-94
2023/09/17 02:39:59;;;;;;;1.65;0.95;;;;;;;16.84;60.10;99992.03;5266063;27;20046;-94
2023/09/17 02:42:25;;;;;;;0.53;0.33;;;;;;;16.73;60.09;99998.78;5262299;27;20053;-94
2023/09/17 02:44:50;;;;;;;0.90;0.25;;;;;;;16.82;60.10;99991.25;5266142;27;20088;-95
2023/09/17 02:47:16;;;;;;;0.90;0.90;;;;;;;16.64;60.09;99994.00;5267736;27;20093;-94
2023/09/17 02:49:46;;;;;;;0.32;0.32;;;;;;;16.56;60.09;99990.00;5267085;27;20058;-94
2023/09/17 02:52:11;;;;;;;0.57;0.40;;;;;;;16.63;60.09;99995.78;5287308;27;20079;-95
2023/09/17 02:54:37;;;;;;;0.25;0.25;;;;;;;16.65;60.09;99982.53;5275636;27;20084;-94
2023/09/17 02:57:02;;;;;;;0.55;0.25;;;;;;;16.47;60.09;99995.72;5261642;27;20057;-94
2023/09/17 02:59:33;;;;;;;0.00;0.00;;;;;;;16.58;60.09;99992.53;5268405;27;20150;-95
2023/09/17 03:01:59;;;;;;;0.40;0.25;;;;;;;16.47;60.08;99990.47;5265512;27;20061;-94
2023/09/17 03:04:26;;;;;;;0.10;0.10;;;;;;;16.50;60.08;99986.81;5265422;27;20087;-95
2023/09/17 03:06:54;;;;;;;0.80;0.40;;;;;;;16.48;60.08;99988.69;5265291;27;20026;-93
2023/09/17 03:09:26;;;;;;;0.10;0.10;;;;;;;16.44;60.08;99990.62;5283033;27;20787;-94
2023/09/17 03:11:53;;;;;;;0.00;0.00;;;;;;;16.41;60.08;99985.53;5265358;27;20044;-94
2023/09/17 03:14:20;;;;;;;0.00;0.00;;;;;;;16.45;60.08;99983.59;5264651;27;20343;-94
2023/09/17 03:16:51;;;;;;;0.10;0.10;;;;;;;16.65;60.09;99982.53;5246954;27;20044;-94
2023/09/17 03:19:19;;;;;;;0.75;0.75;;;;;;;16.66;60.09;99984.25;5264880;27;20124;-94
2023/09/17 03:21:44;;;;;;;0.40;0.30;;;;;;;16.52;60.08;99977.06;5265561;27;20136;-94
2023/09/17 03:24:10;;;;;;;0.03;0.03;;;;;;;16.38;60.07;99977.81;5264591;27;20070;-93
2023/09/17 03:26:38;;;;;;;0.00;0.00;;;;;;;16.51;60.08;99970.97;5264776;27;20087;-94
2023/09/17 03:29:04;;;;;;;0.20;0.20;;;;;;;16.36;60.07;99970.94;5265050;27;20061;-94
2023/09/17 03:31:29;;;;;;;0.10;0.10;;;;;;;16.35;60.07;99974.50;5265118;27;20413;-94
2023/09/17 03:33:55;;;;;;;0.30;0.30;;;;;;;16.47;60.08;99966.81;5276443;27;20065;-94
2023/09/17 03:36:21;;;;;;;0.10;0.10;;;;;;;16.19;60.07;99969.19;5267916;27;20057;-94
2023/09/17 03:38:46;;;;;;;0.55;0.47;;;;;;;16.29;60.07;99970.37;5285799;27;20076;-94
2023/09/17 03:41:12;;;;;;;0.00;0.00;;;;;;;16.16;60.07;99975.44;5285311;27;20409;-93
2023/09/17 03:43:37;;;;;;;0.20;0.20;;;;;;;16.14;60.06;99981.72;5267502;27;20479;-94
2023/09/17 03:46:04;;;;;;;0.15;0.15;;;;;;;16.32;60.08;99985.16;5267633;27;20067;-94
2023/09/17 03:48:30;;;;;;;0.10;0.10;;;;;;;16.25;60.07;99977.59;5263815;27;20049;-94
2023/09/17 03:50:56;;;;;;;0.13;0.13;;;;;;;16.32;60.08;99979.88;5263617;27;20060;-94
2023/09/17 03:53:21;;;;;;;0.20;0.20;;;;;;;16.23;60.06;99979.44;5268515;27;20060;-94
2023/09/17 03:55:47;;;;;;;2.20;1.80;;;;;;;16.20;60.06;99971.72;5267369;27;20052;-94
2023/09/17 03:58:12;;;;;;;0.20;0.20;;;;;;;16.15;60.06;99983.41;5267369;27;20381;-94
2023/09/17 04:00:38;;;;;;;2.58;0.60;;;;;;;16.31;60.07;99978.19;5285639;27;20085;-94
2023/09/17 04:03:05;;;;;;;0.00;0.00;;;;;;;16.25;60.07;99982.00;5267665;27;20120;-94
2023/09/17 04:05:30;;;;;;;0.00;0.00;;;;;;;16.23;60.06;99989.94;5268297;27;20067;-94
2023/09/17 04:07:56;;;;;;;1.40;0.90;;;;;;;16.24;60.07;99983.78;5269249;27;20088;-94
2023/09/17 04:10:21;;;;;;;0.75;0.70;;;;;;;16.22;60.06;99992.66;5286554;27;20329;-94
2023/09/17 04:12:47;;;;;;;0.20;0.20;;;;;;;16.18;60.07;99984.09;5269563;27;20123;-94
2023/09/17 04:15:20;;;;;;;0.25;0.20;;;;;;;16.14;60.06;99992.22;5271203;27;20025;-94
2023/09/17 04:17:46;;;;;;;0.25;0.20;;;;;;;16.10;60.06;99995.94;5302954;27;20013;-94
2023/09/17 04:20:17;;;;;;;0.00;0.00;;;;;;;16.21;60.06;99999.69;5275615;27;20061;-95
2023/09/17 04:22:42;;;;;;;0.10;0.10;;;;;;;16.09;60.07;100002.06;5286287;27;20127;-94
2023/09/17 04:25:09;;;;;;;3.12;0.40;;;;;;;16.12;60.06;100007.19;5267426;27;20056;-94
2023/09/17 04:27:36;;;;;;;0.25;0.20;;;;;;;16.19;60.07;100003.31;5267505;27;20058;-93
2023/09/17 04:30:05;;;;;;;0.10;0.10;;;;;;;16.37;60.07;99996.28;5285737;27;20055;-94
2023/09/17 04:32:37;;;;;;;0.00;0.00;;;;;;;16.47;60.08;100000.97;5267638;27;20079;-94
2023/09/17 04:35:10;;;;;;;0.00;0.00;;;;;;;16.24;60.07;100007.41;5246705;27;20053;-93
2023/09/17 04:37:38;;;;;;;0.25;0.25;;;;;;;16.24;60.06;100003.94;5264651;27;20041;-95
2023/09/17 04:40:13;;;;;;;0.37;0.37;;;;;;;16.16;60.07;100004.34;5245714;27;20080;-95
2023/09/17 04:42:40;;;;;;;1.27;0.60;;;;;;;16.17;60.07;100015.69;5248654;27;20079;-94
2023/09/17 04:45:08;;;;;;;0.20;0.20;;;;;;;16.21;60.06;100020.69;5263992;27;20057;-95
2023/09/17 04:47:34;;;;;;;3.05;0.80;;;;;;;16.28;60.07;100014.19;5245901;27;20075;-94
2023/09/17 04:50:00;;;;;;;1.33;0.60;;;;;;;16.28;60.07;100015.97;5245573;27;20049;-95
2023/09/17 04:52:26;;;;;;;1.27;0.45;;;;;;;16.26;60.07;100013.44;5245797;27;20713;-95
2023/09/17 04:54:51;;;;;;;0.30;0.30;;;;;;;16.29;60.07;100022.94;5245229;27;20103;-94
2023/09/17 04:57:17;;;;;;;0.55;0.55;;;;;;;16.36;60.07;100028.75;5245275;27;20067;-94
2023/09/17 04:59:42;;;;;;;0.45;0.45;;;;;;;16.29;60.07;100017.69;5245528;27;20398;-94
2023/09/17 05:02:08;;;;;;;0.10;0.08;;;;;;;16.31;60.07;100022.84;5245686;27;20111;-94
2023/09/17 05:04:33;;;;;;;0.45;0.20;;;;;;;16.39;60.07;100025.94;5245866;27;20369;-94
2023/09/17 05:06:59;;;;;;;0.00;0.00;;;;;;;16.54;60.08;100025.12;5245253;27;20045;-93
2023/09/17 05:09:25;;;;;;;0.20;0.20;;;;;;;16.64;60.09;100029.00;5245458;27;20120;-94
2023/09/17 05:11:51;;;;;;;0.10;0.10;;;;;;;16.59;60.09;100023.16;5245850;27;20132;-94
2023/09/17 05:14:17;;;;;;;0.62;0.62;;;;;;;16.70;60.09;100025.22;5247129;27;20049;-94
2023/09/17 05:16:42;;;;;;;0.17;0.17;;;;;;;17.00;60.10;100023.59;5245413;27;20068;-93
2023/09/17 05:19:07;;;;;;;0.45;0.45;;;;;;;17.09;60.12;100027.53;5245395;27;20076;-94
2023/09/17 05:21:33;;;;;;;0.08;0.08;;;;;;;16.94;60.11;100034.44;5245325;27;20116;-94
2023/09/17 05:23:58;;;;;;;1.17;1.00;;;;;;;17.08;60.12;100037.19;5245386;27;20057;-94
2023/09/17 05:26:25;;;;;;;0.30;0.30;;;;;;;16.98;60.10;100029.84;5245802;27;20314;-94
2023/09/17 05:28:51;;;;;;;0.17;0.17;;;;;;;16.94;60.10;100034.44;5246735;27;20102;-94
2023/09/17 05:31:16;;;;;;;0.88;0.20;;;;;;;16.93;60.09;100034.53;5248011;27;20101;-94
2023/09/17 05:33:41;;;;;;;0.60;0.20;;;;;;;17.10;60.11;100042.38;5256583;27;20462;-93
2023/09/17 05:36:07;;;;;;;0.00;0.00;;;;;;;17.21;60.11;100039.97;5287708;27;20045;-94
2023/09/17 05:38:32;;;;;;;4.18;0.30;;;;;;;17.22;60.12;100046.94;5280005;27;20053;-94
2023/09/17 05:40:58;;;;;;;0.25;0.22;;;;;;;17.36;60.12;100047.03;5278782;27;20095;-95
2023/09/17 05:43:24;;;;;;;0.55;0.55;;;;;;;17.48;60.13;100043.72;5266720;27;20075;-94
2023/09/17 05:45:56;;;;;;;1.37;0.65;;;;;;;17.80;60.15;100051.66;5266928;27;20449;-94
2023/09/17 05:48:24;;;;;;;0.25;0.25;;;;;;;17.89;60.15;100051.09;5268582;27;20076;-95
2023/09/17 05:50:50;;;;;;;0.28;0.28;;;;;;;18.09;60.16;100044.69;5266924;27;20061;-95
2023/09/17 05:53:16;;;;;;;2.95;0.65;;;;;;;18.31;60.17;100045.13;5266835;27;20068;-93
2023/09/17 05:55:42;;;;;;;1.65;1.05;;;;;;;18.45;60.18;100046.94;5266722;27;20041;-94
2023/09/17 05:58:07;;;;;;;1.87;0.65;;;;;;;18.60;60.19;100046.03;5284516;27;20064;-94
2023/09/17 06:00:33;;;;;;;0.05;0.05;;;;;;;18.51;60.19;100049.22;5284529;27;20087;-94
2023/09/17 06:02:58;;;;;;;0.13;0.10;;;;;;;18.75;60.19;100044.28;5284804;27;20052;-94
2023/09/17 06:05:24;;;;;;;0.37;0.37;;;;;;;18.88;60.20;100041.72;5284360;27;20091;-95
2023/09/17 06:07:49;;;;;;;0.47;0.47;;;;;;;18.83;60.20;100043.81;5267395;27;20449;-95
2023/09/17 06:10:15;;;;;;;1.25;0.98;;;;;;;19.09;60.21;100039.56;5267395;27;20398;-93
2023/09/17 06:12:41;;;;;;;0.73;0.73;;;;;;;19.10;60.21;100044.72;5267547;27;20123;-95
2023/09/17 06:15:07;;;;;;;2.08;0.88;;;;;;;19.40;60.23;100039.34;5267414;27;20134;-94
2023/09/17 06:17:32;;;;;;;0.10;0.10;;;;;;;19.62;60.25;100041.44;5267415;27;20060;-92
2023/09/17 06:19:58;;;;;;;0.55;0.55;;;;;;;19.66;60.25;100042.12;5267388;27;20060;-93
2023/09/17 06:22:23;;;;;;;4.53;1.10;;;;;;;19.79;60.26;100046.50;5285636;27;20303;-93
2023/09/17 06:24:49;;;;;;;3.72;1.75;;;;;;;20.07;60.26;100044.66;5267249;27;20049;-94
2023/09/17 06:27:14;;;;;;;0.30;0.30;;;;;;;20.20;60.27;100048.19;5267483;27;20057;-92
2023/09/17 06:29:40;;;;;;;1.77;1.20;;;;;;;20.33;60.28;100046.41;5267839;27;20064;-93
2023/09/17 06:32:06;;;;;;;0.68;0.68;;;;;;;20.32;60.28;100044.72;5268024;27;20060;-93
2023/09/17 06:34:33;;;;;;;0.62;0.62;;;;;;;20.63;60.29;100045.31;5268393;27;20052;-93
2023/09/17 06:36:59;;;;;;;0.20;0.20;;;;;;;20.84;60.30;100047.34;5287090;27;20766;-93
2023/09/17 06:39:27;;;;;;;3.75;0.62;;;;;;;21.00;60.31;100047.09;5267801;27;20060;-93
2023/09/17 06:41:53;;;;;;;0.80;0.57;;;;;;;21.17;60.32;100053.00;5285923;27;20763;-93
2023/09/17 06:44:23;;;;;;;0.40;0.40;;;;;;;21.39;60.33;100045.25;5267826;27;20045;-94
2023/09/17 06:46:48;;;;;;;0.93;0.88;;;;;;;21.45;60.34;100048.28;5285879;27;20064;-90
2023/09/17 06:49:14;;;;;;;3.30;1.45;;;;;;;21.54;60.34;100048.59;5267864;27;20086;-93
2023/09/17 06:51:39;;;;;;;0.55;0.30;;;;;;;21.87;60.35;100051.41;5270352;27;20404;-93
2023/09/17 06:54:05;;;;;;;0.40;0.40;;;;;;;21.96;60.37;100052.53;5287156;27;20104;-94
2023/09/17 06:56:31;;;;;;;0.17;0.17;;;;;;;22.13;60.37;100046.00;5270070;27;20076;-93
2023/09/17 06:58:56;;;;;;;1.20;1.10;;;;;;;22.27;60.38;100056.44;5275061;27;20079;-93
2023/09/17 07:01:22;;;;;;;0.75;0.65;;;;;;;22.31;60.38;100055.22;5281803;27;20084;-93
2023/09/17 07:03:49;;;;;;;0.47;0.43;;;;;;;22.39;60.38;100052.00;5269880;27;20041;-93
2023/09/17 07:06:16;;;;;;;0.62;0.52;;;;;;;22.50;60.39;100050.22;5268175;27;20119;-93
2023/09/17 07:08:44;;;;;;;1.35;0.68;;;;;;;22.67;60.40;100056.84;5303948;27;20409;-93
2023/09/17 07:11:16;;;;;;;0.32;0.32;;;;;;;22.51;60.39;100056.38;5267955;27;20761;-93
2023/09/17 07:13:42;;;;;;;0.50;0.47;;;;;;;22.79;60.40;100050.63;5269566;27;20067;-92
2023/09/17 07:16:08;;;;;;;0.47;0.47;;;;;;;22.90;60.41;100053.28;5267317;27;20350;-93
2023/09/17 07:18:34;;;;;;;0.60;0.60;;;;;;;22.96;60.42;100036.91;5267424;27;20064;-93
2023/09/17 07:21:02;;;;;;;0.47;0.35;;;;;;;23.04;60.43;100044.25;5267730;27;20083;-93
2023/09/17 07:23:29;;;;;;;1.45;1.35;;;;;;;23.22;60.43;100041.97;5268509;27;20061;-94
2023/09/17 07:25:55;;;;;;;0.30;0.30;;;;;;;23.12;60.42;100048.94;5267717;27;20025;-93
2023/09/17 07:28:21;;;;;;;0.60;0.60;;;;;;;23.31;60.43;100053.66;5267430;27;20375;-93
2023/09/17 07:30:48;;;;;;;2.97;1.40;;;;;;;23.31;60.44;100056.31;5267485;27;20088;-93
2023/09/17 07:33:17;;;;;;;0.30;0.30;;;;;;;23.28;60.42;100052.09;5267740;27;20067;-93
2023/09/17 07:35:52;;;;;;;0.28;0.28;;;;;;;23.47;60.44;100049.66;5285540;27;20052;-93
2023/09/17 07:38:18;;;;;;;2.60;0.43;;;;;;;23.66;60.45;100058.78;5269310;27;20068;-93
2023/09/17 07:40:47;;;;;;;0.37;0.37;;;;;;;23.61;60.45;100056.50;5267375;27;20061;-93
2023/09/17 07:43:16;;;;;;;1.23;1.12;;;;;;;23.80;60.46;100058.53;5267553;27;20132;-93
2023/09/17 07:45:44;;;;;;;0.88;0.30;;;;;;;23.96;60.47;100056.31;5267290;27;20587;-93
2023/09/17 07:48:12;;;;;;;0.70;0.47;;;;;;;23.93;60.47;100059.22;5268165;27;20056;-93
2023/09/17 07:50:40;;;;;;;1.00;0.90;;;;;;;23.96;60.46;100056.31;5267123;27;20061;-94
2023/09/17 07:53:07;;;;;;;0.37;0.37;;;;;;;23.97;60.46;100059.81;5267544;27;20040;-93
2023/09/17 07:55:35;;;;;;;0.47;0.43;;;;;;;24.06;60.48;100054.56;5268126;27;20067;-94
2023/09/17 07:58:05;;;;;;;0.37;0.37;;;;;;;24.28;60.47;100048.31;5267949;27;20064;-93
2023/09/17 08:00:33;;;;;;;1.23;1.05;;;;;;;24.46;60.50;100056.56;5268039;27;20329;-94
2023/09/17 08:03:03;;;;;;;1.65;1.25;;;;;;;24.52;60.49;100057.84;5285551;27;20048;-94
2023/09/17 08:05:29;;;;;;;0.45;0.45;;;;;;;24.49;60.49;100059.81;5268215;27;20077;-92
2023/09/17 08:07:59;;;;;;;0.52;0.37;;;;;;;24.65;60.50;100062.00;5267425;27;20067;-93
2023/09/17 08:10:27;;;;;;;0.30;0.30;;;;;;;24.77;60.51;100060.09;5286461;27;20053;-93
2023/09/17 08:12:58;;;;;;;0.62;0.62;;;;;;;24.93;60.52;100065.78;5269732;27;20049;-94
2023/09/17 08:15:39;;;;;;;;;;;;;;;;;;;;;
2023/09/17 08:18:08;;;;;;;1.42;1.10;;;;;;;25.00;60.51;100063.47;5290210;27;35927;-93
2023/09/17 08:21:20;;;;;;;;;;;;;;;;;;;;;
2023/09/17 08:23:53;;;;;;;1.17;1.08;;;;;;;25.26;60.53;100066.50;5331642;26;35629;-94
2023/09/17 08:26:22;;;;;;;1.10;1.10;;;;;;;25.38;60.53;100065.44;5285771;27;20073;-93
2023/09/17 08:29:16;;;;;;;2.92;1.65;;;;;;;25.34;60.54;100066.69;5267415;27;20071;-93
2023/09/17 08:32:03;;;;;;;0.25;0.25;;;;;;;25.46;60.54;100062.09;5306064;27;20024;-94
2023/09/17 08:34:47;;;;;;;3.22;2.05;;;;;;;25.73;60.56;100059.62;5267528;27;20601;-93
2023/09/17 08:37:45;;;;;;;;;;;;;;;;;;;;;
2023/09/17 08:40:34;;;;;;;0.50;0.50;;;;;;;25.68;60.56;100065.41;5304354;27;34997;-93
2023/09/17 08:44:01;;;;;;;;;;;;;;;;;;;;;
2023/09/17 08:46:30;;;;;;;;;;;;;;;;;;;;;
2023/09/17 08:49:00;;;;;;;1.30;0.93;;;;;;;26.00;60.57;100053.63;5288083;27;36623;-93
2023/09/17 08:52:13;;;;;;;;;;;;;;;;;;;;;
2023/09/17 08:55:14;;;;;;;;;;;;;;;;;;;;;
2023/09/17 08:58:40;;;;;;;;;;;;;;;;;;;;;
2023/09/17 09:02:02;;;;;;;;;;;;;;;;;;;;;
2023/09/17 09:04:50;;;;;;;;;;;;;;;;;;;;;
2023/09/17 09:07:48;;;;;;;2.08;1.20;;;;;;;26.57;60.61;100047.44;5217203;27;34267;-94
2023/09/17 09:10:25;;;;;;;0.55;0.55;;;;;;;26.61;60.60;100051.50;5200940;27;20214;-96
2023/09/17 09:14:00;;;;;;;;;;;;;;;;;;;;;
2023/09/17 09:27:12;;;;;;;0.35;0.35;;;;;;;27.37;60.64;100029.12;5148959;27;20079;-94
2023/09/17 09:30:24;;;;;;;;;;;;;;;;;;;;;
2023/09/17 09:33:26;;;;;;;0.40;0.40;;;;;;;27.51;60.66;100031.28;5267507;27;20080;-94
2023/09/17 09:35:57;;;;;;;0.62;0.62;;;;;;;27.80;60.66;100037.31;5258832;27;20060;-94
2023/09/17 09:42:35;;;;;;;;;;;;;;;;;;;;;
2023/09/17 09:45:47;;;;;;;0.75;0.75;;;;;;;28.21;60.68;100028.81;5281803;27;37927;-94
2023/09/17 09:53:05;;;;;;;0.80;0.80;;;;;;;28.51;60.70;100027.53;5189001;27;20059;-96
2023/09/17 09:57:02;;;;;;;;;;;;;;;;;;;;;
2023/09/17 10:03:24;;;;;;;;;;;;;;;;;;;;;
2023/09/17 10:13:43;;;;;;;;;;;;;;;;;;;;;
2023/09/17 10:16:30;;;;;;;2.28;1.55;;;;;;;29.65;60.76;100012.81;5066513;28;36254;-96
2023/09/17 10:18:56;;;;;;;2.15;1.42;;;;;;;29.68;60.76;100008.97;5167036;27;20081;-95
2023/09/17 10:21:22;;;;;;;1.98;1.45;;;;;;;29.86;60.77;100007.81;5246106;27;20342;-95
2023/09/17 10:23:47;;;;;;;2.00;1.45;;;;;;;29.95;60.78;100003.28;5246714;27;20071;-95
2023/09/17 10:26:12;;;;;;;1.42;1.05;;;;;;;29.86;60.77;100004.31;5263856;27;20072;-95
2023/09/17 10:28:38;;;;;;;0.60;0.60;;;;;;;29.92;60.78;100009.84;5263769;27;20085;-94
2023/09/17 10:31:03;;;;;;;3.75;1.30;;;;;;;29.89;60.77;99995.91;5263715;27;20071;-93
2023/09/17 10:33:31;;;;;;;1.75;0.65;;;;;;;29.95;60.78;99998.75;5265846;27;20393;-93
2023/09/17 10:35:59;;;;;;;1.60;1.50;;;;;;;30.21;60.80;99997.78;5267334;27;20076;-93
2023/09/17 10:38:26;;;;;;;1.50;0.77;;;;;;;30.32;60.80;99999.28;5268060;27;20080;-93
2023/09/17 10:40:51;;;;;;;5.10;1.42;;;;;;;30.44;60.80;99997.91;5267570;27;20162;-92
2023/09/17 10:43:18;;;;;;;2.58;1.50;;;;;;;30.50;60.81;99999.91;5267078;27;20441;-92
2023/09/17 10:45:44;;;;;;;1.30;1.20;;;;;;;30.56;60.81;99993.87;5285440;27;20066;-92
2023/09/17 10:48:10;;;;;;;1.50;1.40;;;;;;;30.67;60.82;99987.31;5285288;27;20112;-92
2023/09/17 10:50:36;;;;;;;1.70;1.60;;;;;;;30.68;60.81;99991.66;5267323;27;20064;-92
2023/09/17 10:53:02;;;;;;;1.65;1.50;;;;;;;30.73;60.83;99986.59;5267511;27;20036;-91
2023/09/17 10:55:30;;;;;;;1.30;1.17;;;;;;;30.88;60.83;99984.03;5285738;27;20053;-91
2023/09/17 10:58:10;;;;;;;1.00;1.00;;;;;;;31.03;60.84;99980.47;5267828;27;20112;-93
2023/09/17 11:00:37;;;;;;;1.33;1.20;;;;;;;31.08;60.83;99969.16;5306333;27;20506;-91
2023/09/17 11:03:03;;;;;;;0.93;0.93;;;;;;;31.07;60.83;99970.19;5271189;27;20073;-91
2023/09/17 11:05:29;;;;;;;2.28;1.52;;;;;;;31.13;60.84;99961.41;5298425;27;20017;-91
2023/09/17 11:07:57;;;;;;;1.30;1.20;;;;;;;31.15;60.84;99964.75;5285648;27;20091;-90
2023/09/17 11:10:23;;;;;;;1.42;1.08;;;;;;;31.31;60.85;99961.19;5285145;27;20057;-91
2023/09/17 11:12:48;;;;;;;7.45;1.58;;;;;;;31.44;60.86;99961.41;5285006;27;20064;-91
2023/09/17 11:15:14;;;;;;;0.50;0.50;;;;;;;31.40;60.85;99962.78;5284964;27;20112;-90
2023/09/17 11:17:40;;;;;;;0.77;0.77;;;;;;;31.30;60.85;99963.03;5284582;27;20087;-91
2023/09/17 11:20:12;;;;;;;2.30;2.10;;;;;;;31.34;60.86;99969.72;5266961;27;20057;-91
2023/09/17 11:22:37;;;;;;;2.12;1.92;;;;;;;31.18;60.85;99964.44;5267363;27;20056;-91
2023/09/17 11:25:03;;;;;;;2.28;1.20;;;;;;;31.49;60.87;99971.66;5284665;27;20437;-90
2023/09/17 11:27:51;;;;;;;2.30;1.70;;;;;;;31.61;60.87;99971.06;5266539;27;20368;-89
2023/09/17 11:30:17;;;;;;;0.98;0.95;;;;;;;31.67;60.87;99967.62;5303194;27;20078;-90
2023/09/17 11:32:53;;;;;;;1.05;1.05;;;;;;;31.82;60.88;99966.88;5266454;27;20052;-90
2023/09/17 11:35:23;;;;;;;0.60;0.60;;;;;;;31.93;60.88;99969.13;5266413;27;20056;-91
2023/09/17 11:37:49;;;;;;;0.73;0.73;;;;;;;32.00;60.89;99962.87;5266529;27;20061;-89
2023/09/17 11:40:16;;;;;;;1.05;0.95;;;;;;;31.95;60.88;99957.19;5302707;27;20444;-89
2023/09/17 11:42:42;;;;;;;1.67;1.15;;;;;;;32.22;60.90;99952.22;5302936;27;20112;-88
2023/09/17 11:45:08;;;;;;;1.87;1.60;;;;;;;32.02;60.88;99966.22;5284719;27;20061;-88
2023/09/17 11:47:38;;;;;;;2.10;1.37;;;;;;;32.10;60.89;99964.44;5284760;27;20433;-89
2023/09/17 11:50:05;;;;;;;1.08;1.02;;;;;;;32.24;60.90;99952.88;5302993;27;20056;-89
2023/09/17 11:52:30;;;;;;;1.40;1.30;;;;;;;32.35;60.91;99947.87;5302764;27;20071;-89
2023/09/17 11:55:06;;;;;;;1.98;1.80;;;;;;;32.56;60.92;99947.16;5302430;27;20060;-89
2023/09/17 11:57:33;;;;;;;4.30;1.80;;;;;;;32.55;60.92;99948.19;5304374;27;20061;-88
2023/09/17 11:59:59;;;;;;;1.90;1.80;;;;;;;32.51;60.91;99944.19;5302847;27;20056;-88
2023/09/17 12:02:26;;;;;;;1.15;1.10;;;;;;;32.56;60.92;99943.62;5322486;27;20146;-88
2023/09/17 12:04:52;;;;;;;2.47;1.70;;;;;;;32.57;60.92;99945.28;5303098;27;20088;-89
2023/09/17 12:07:18;;;;;;;0.85;0.85;;;;;;;32.39;60.91;99948.34;5303215;27;20406;-88
2023/09/17 12:12:11;;;;;;;1.52;1.35;;;;;;;32.53;60.92;99934.06;5303088;27;20425;-88
2023/09/17 12:14:36;;;;;;;0.95;0.95;;;;;;;32.48;60.91;99931.09;5302726;27;20077;-88
2023/09/17 12:17:02;;;;;;;2.20;1.40;;;;;;;32.45;60.91;99933.31;5303202;27;20056;-88
2023/09/17 12:19:28;;;;;;;1.17;1.12;;;;;;;32.43;60.91;99932.69;5303453;27;20155;-88
2023/09/17 12:21:56;;;;;;;1.25;1.17;;;;;;;32.44;60.92;99937.03;5303890;27;20057;-88
2023/09/17 12:24:44;;;;;;;2.92;1.52;;;;;;;32.61;60.92;99933.13;5305909;27;20040;-89
2023/09/17 12:27:29;;;;;;;1.40;1.27;;;;;;;32.71;60.93;99935.53;5317664;27;20021;-88
2023/09/17 12:29:55;;;;;;;1.48;1.37;;;;;;;32.87;60.93;99932.66;5304068;27;20074;-88
2023/09/17 12:32:24;;;;;;;2.42;2.20;;;;;;;33.10;60.95;99921.72;5285287;27;20063;-88
2023/09/17 12:34:52;;;;;;;1.92;0.90;;;;;;;33.14;60.95;99923.88;5302960;27;20107;-88
2023/09/17 12:37:17;;;;;;;2.15;1.70;;;;;;;33.33;60.96;99919.72;5303042;27;20309;-88